Pagrindinis puslapis
METAR-TAF:

METAR-TAF

Oro uostai :

Midvėjaus, Jungtinės Amerikos Valstijos

platuma: 28-13N, ilguma: 177-22W, Aukštis: 4 m

METAR: trūkstamas

Laikas: 00:04 (10:04 UTC)

Prognozė

Ataskaita buvo paskelbta 4 valandos ir 43 minutes, ne 05:21 UTC
Prognozė galioja nuo 22 metu 06 UTC su 23 metu 06 UTC
Vėjas 12 kt iš Rytų su gūsio iki 20 kt
Matomumas: 10 km
Išsisklaidę debesys ne aukštis 2500 ft
Išsisklaidę debesys ne aukštis 4500 ft

TAF: PMDY 220521Z 2206/2306 10012G20KT P6SM SCT025 SCT045 AMD NOT SKED

Orai ataskaitas ir orų prognozės (METAR, TAF).

turimą stotys yra geltonos ir raudonos taškus žemėlapyje.

Perkelti pele per norėdami pamatyti stoties vardą.

Tada spustelėkite, norėdami matyti oro stebėjimo ir prognozės.

Norėdami pakeisti žemėlapį: spustelėkite ant žalios mygtukų su juodo kryžiaus žemyn,; žalią mygtuką su brūkšneliu, jei norite nutolinti; arba žalių rodyklių gretimoms žemėlapius.


METAR-TAF: